createdAt,value
2018-07-04T00:02:02.032Z,15.90
2018-07-04T00:04:41.721Z,15.80
2018-07-04T00:07:21.396Z,15.80
2018-07-04T00:10:00.998Z,15.70
2018-07-04T00:12:40.749Z,15.70
2018-07-04T00:15:20.240Z,15.60
2018-07-04T00:17:59.766Z,15.60
2018-07-04T00:20:40.704Z,15.50
2018-07-04T00:23:20.534Z,15.50
2018-07-04T00:26:00.206Z,15.40
2018-07-04T00:28:39.950Z,15.40
2018-07-04T00:31:19.518Z,15.30
2018-07-04T00:33:59.198Z,15.30
2018-07-04T00:36:38.920Z,15.20
2018-07-04T00:39:18.730Z,15.20
2018-07-04T00:41:58.551Z,15.10
2018-07-04T00:44:38.226Z,15.10
2018-07-04T00:47:18.461Z,15.10
2018-07-04T00:49:58.115Z,15.00
2018-07-04T00:52:37.976Z,15.00
2018-07-04T00:55:18.303Z,14.90
2018-07-04T00:57:58.047Z,14.90
2018-07-04T01:00:37.703Z,14.90
2018-07-04T01:03:17.400Z,14.80
2018-07-04T01:05:57.038Z,14.80
2018-07-04T01:08:36.599Z,14.80
2018-07-04T01:11:16.234Z,14.80
2018-07-04T01:13:55.810Z,14.70
2018-07-04T01:16:35.459Z,14.70
2018-07-04T01:19:15.119Z,14.70
2018-07-04T01:21:54.660Z,14.70
2018-07-04T01:24:34.209Z,14.60
2018-07-04T01:27:13.889Z,14.60
2018-07-04T01:29:53.591Z,14.60
2018-07-04T01:32:33.331Z,14.50
2018-07-04T01:35:13.008Z,14.50
2018-07-04T01:37:52.693Z,14.50
2018-07-04T01:40:32.275Z,14.40
2018-07-04T01:43:11.878Z,14.40
2018-07-04T01:45:51.481Z,14.30
2018-07-04T01:48:31.176Z,14.20
2018-07-04T01:51:11.115Z,14.20
2018-07-04T01:53:50.801Z,14.20
2018-07-04T01:56:30.364Z,14.10
2018-07-04T01:59:10.689Z,14.10
2018-07-04T02:01:50.534Z,14.10
2018-07-04T02:04:30.182Z,14.00
2018-07-04T02:07:10.492Z,14.00
2018-07-04T02:09:50.425Z,14.00
2018-07-04T02:12:30.193Z,14.00
2018-07-04T02:15:09.943Z,13.90
2018-07-04T02:17:49.672Z,13.90
2018-07-04T02:20:29.620Z,13.80
2018-07-04T02:23:09.386Z,13.80
2018-07-04T02:25:49.092Z,13.80
2018-07-04T02:28:28.816Z,13.80
2018-07-04T02:31:08.516Z,13.70
2018-07-04T02:33:48.165Z,13.70
2018-07-04T02:36:27.805Z,13.70
2018-07-04T02:39:07.423Z,13.60
2018-07-04T02:41:47.064Z,13.60
2018-07-04T02:44:26.861Z,13.60
2018-07-04T02:47:09.177Z,13.60
2018-07-04T02:49:48.880Z,13.60
2018-07-04T02:52:29.345Z,13.60
2018-07-04T02:55:08.997Z,13.60
2018-07-04T02:57:48.733Z,13.60
2018-07-04T03:00:28.376Z,13.50
2018-07-04T03:03:07.977Z,13.50
2018-07-04T03:05:47.694Z,13.50
2018-07-04T03:08:27.407Z,13.60
2018-07-04T03:11:07.220Z,13.60
2018-07-04T03:13:47.700Z,13.60
2018-07-04T03:16:27.487Z,13.70
2018-07-04T03:19:07.302Z,13.70
2018-07-04T03:21:46.906Z,13.70
2018-07-04T03:24:26.698Z,13.80
2018-07-04T03:27:06.221Z,13.80
2018-07-04T03:29:45.896Z,13.80
2018-07-04T03:32:25.571Z,13.80
2018-07-04T03:35:05.273Z,13.90
2018-07-04T03:37:44.929Z,13.90
2018-07-04T03:40:24.590Z,13.90
2018-07-04T03:43:04.234Z,13.90
2018-07-04T03:45:43.948Z,13.90
2018-07-04T03:48:23.590Z,14.00
2018-07-04T03:51:03.259Z,14.00
2018-07-04T03:53:42.996Z,14.20
2018-07-04T03:56:22.640Z,14.40
2018-07-04T03:59:02.613Z,14.40
2018-07-04T04:01:42.197Z,14.50
2018-07-04T04:04:21.794Z,14.50
2018-07-04T04:07:01.567Z,14.50
2018-07-04T04:09:41.233Z,14.50
2018-07-04T04:12:20.908Z,14.60
2018-07-04T04:15:00.622Z,14.70
2018-07-04T04:17:40.398Z,15.00
2018-07-04T04:20:20.049Z,15.30
2018-07-04T04:23:00.388Z,15.60
2018-07-04T04:25:40.302Z,15.70
2018-07-04T04:28:20.053Z,15.70
2018-07-04T04:30:59.878Z,15.70
2018-07-04T04:33:39.529Z,15.80
2018-07-04T04:36:19.313Z,15.80
2018-07-04T04:38:59.012Z,15.90
2018-07-04T04:41:38.647Z,16.00
2018-07-04T04:44:18.175Z,16.20
2018-07-04T04:46:57.815Z,16.40
2018-07-04T04:49:37.386Z,16.70
2018-07-04T04:52:16.950Z,17.00
2018-07-04T04:54:56.606Z,17.30
2018-07-04T04:57:36.310Z,17.70
2018-07-04T05:00:15.999Z,17.90
2018-07-04T05:02:55.669Z,18.10
2018-07-04T05:05:36.054Z,18.00
2018-07-04T05:08:15.972Z,17.70
2018-07-04T05:10:55.653Z,17.40
2018-07-04T05:13:35.982Z,17.20
2018-07-04T05:16:16.351Z,17.00
2018-07-04T05:18:56.955Z,16.90
2018-07-04T05:21:36.703Z,16.90
2018-07-04T05:24:16.536Z,16.90
2018-07-04T05:26:56.312Z,17.00
2018-07-04T05:29:35.774Z,17.10
2018-07-04T05:32:16.155Z,17.30
2018-07-04T05:34:55.974Z,17.70
2018-07-04T05:37:35.774Z,18.00
2018-07-04T05:40:15.487Z,18.20
2018-07-04T05:42:55.184Z,18.30
2018-07-04T05:45:35.120Z,18.40
2018-07-04T05:48:14.722Z,18.70
2018-07-04T05:50:54.470Z,19.00
2018-07-04T05:53:34.330Z,19.40
2018-07-04T05:56:14.110Z,19.90
2018-07-04T05:58:53.870Z,20.30
2018-07-04T06:01:33.528Z,20.60
2018-07-04T06:04:13.330Z,20.60
2018-07-04T06:06:52.983Z,20.30
2018-07-04T06:09:32.625Z,20.10
2018-07-04T06:12:12.337Z,19.80
2018-07-04T06:14:52.091Z,19.80
2018-07-04T06:17:32.421Z,20.00
2018-07-04T06:20:12.339Z,20.20
2018-07-04T06:22:52.457Z,20.40
2018-07-04T06:25:31.995Z,20.50
2018-07-04T06:28:11.656Z,20.70
2018-07-04T06:30:51.368Z,20.90
2018-07-04T06:33:30.965Z,20.90
2018-07-04T06:36:10.660Z,20.90
2018-07-04T06:38:37.983Z,20.80
2018-07-04T06:41:05.350Z,20.90
2018-07-04T06:43:40.156Z,21.10
2018-07-04T06:46:07.456Z,21.10
2018-07-04T06:48:49.195Z,21.40
2018-07-04T06:51:18.823Z,21.50
2018-07-04T06:53:46.140Z,21.40
2018-07-04T06:56:13.779Z,21.40
2018-07-04T06:58:41.096Z,21.40
2018-07-04T07:01:09.646Z,21.50
2018-07-04T07:03:50.956Z,21.50
2018-07-04T07:06:31.393Z,21.80
2018-07-04T07:09:13.652Z,21.90
2018-07-04T07:11:53.657Z,22.00
2018-07-04T07:14:33.326Z,22.10
2018-07-04T07:17:13.120Z,22.30
2018-07-04T07:19:52.879Z,22.30
2018-07-04T07:22:32.645Z,22.10
2018-07-04T07:25:12.389Z,22.10
2018-07-04T07:27:52.160Z,22.30
2018-07-04T07:30:31.880Z,22.40
2018-07-04T07:33:12.364Z,22.60
2018-07-04T07:35:52.380Z,22.80
2018-07-04T07:38:32.597Z,23.00
2018-07-04T07:41:12.378Z,23.10
2018-07-04T07:43:52.214Z,23.10
2018-07-04T07:46:31.923Z,23.20
2018-07-04T07:49:11.593Z,23.20
2018-07-04T07:51:51.301Z,23.50
2018-07-04T07:54:31.035Z,23.70
2018-07-04T07:57:10.847Z,23.90
2018-07-04T07:59:50.544Z,24.20
2018-07-04T08:02:30.794Z,24.60
2018-07-04T08:05:10.942Z,24.80
2018-07-04T08:07:50.617Z,25.00
2018-07-04T08:10:30.309Z,25.00
2018-07-04T08:13:10.342Z,25.20
2018-07-04T08:15:49.849Z,25.20
2018-07-04T08:18:29.528Z,25.30
2018-07-04T08:21:09.206Z,25.40
2018-07-04T08:23:48.761Z,25.40
2018-07-04T08:26:28.298Z,25.30
2018-07-04T08:29:08.376Z,25.10
2018-07-04T08:31:48.319Z,25.00
2018-07-04T08:34:28.153Z,25.10
2018-07-04T08:37:07.794Z,25.20
2018-07-04T08:39:47.539Z,25.40
2018-07-04T08:42:27.220Z,25.50
2018-07-04T08:45:07.038Z,25.50
2018-07-04T08:47:46.779Z,25.50
2018-07-04T08:50:26.429Z,25.50
2018-07-04T08:53:06.128Z,25.50
2018-07-04T08:55:45.950Z,25.50
2018-07-04T08:58:25.554Z,25.40
2018-07-04T09:01:05.647Z,25.20
2018-07-04T09:03:45.574Z,25.30
2018-07-04T09:06:25.361Z,25.40
2018-07-04T09:09:05.091Z,25.60
2018-07-04T09:11:45.123Z,25.90
2018-07-04T09:14:25.641Z,26.10
2018-07-04T09:17:05.482Z,26.10
2018-07-04T09:19:45.242Z,26.30
2018-07-04T09:22:24.876Z,26.50
2018-07-04T09:25:04.728Z,26.60
2018-07-04T09:27:44.256Z,26.80
2018-07-04T09:30:23.985Z,27.00
2018-07-04T09:33:03.721Z,27.00
2018-07-04T09:35:45.847Z,26.90
2018-07-04T09:40:59.486Z,26.80
2018-07-04T09:43:39.226Z,26.70
2018-07-04T09:46:19.204Z,26.90
2018-07-04T09:48:58.848Z,27.00
2018-07-04T09:51:38.742Z,26.90
2018-07-04T09:54:18.454Z,26.80
2018-07-04T09:56:58.085Z,26.70
2018-07-04T09:59:37.790Z,26.70
2018-07-04T10:02:17.511Z,26.80
2018-07-04T10:04:57.364Z,26.80
2018-07-04T10:10:11.012Z,26.90
2018-07-04T10:15:24.694Z,27.10
2018-07-04T10:18:04.435Z,27.20
2018-07-04T10:20:44.248Z,27.50
2018-07-04T10:23:24.454Z,27.70
2018-07-04T10:26:04.840Z,27.80
2018-07-04T10:28:44.660Z,27.80
2018-07-04T10:31:24.546Z,27.90
2018-07-04T10:34:04.157Z,28.00
2018-07-04T10:36:43.891Z,27.80
2018-07-04T10:39:24.035Z,27.80
2018-07-04T10:42:04.315Z,28.10
2018-07-04T10:44:44.050Z,28.30
2018-07-04T10:47:23.686Z,28.40
2018-07-04T10:50:03.297Z,28.20
2018-07-04T10:52:43.061Z,28.20
2018-07-04T10:55:22.902Z,28.40
2018-07-04T10:58:02.526Z,28.40
2018-07-04T11:00:42.228Z,28.50
2018-07-04T11:03:21.975Z,28.60
2018-07-04T11:06:01.809Z,28.80
2018-07-04T11:08:41.628Z,29.00
2018-07-04T11:11:21.579Z,29.10
2018-07-04T11:14:01.192Z,29.00
2018-07-04T11:16:40.925Z,29.00
2018-07-04T11:19:20.550Z,29.00
2018-07-04T11:22:00.975Z,29.20
2018-07-04T11:24:40.821Z,29.40
2018-07-04T11:27:20.598Z,29.60
2018-07-04T11:30:00.866Z,29.70
2018-07-04T11:32:40.686Z,29.60
2018-07-04T11:35:20.292Z,29.50
2018-07-04T11:37:59.885Z,29.50
2018-07-04T11:40:39.648Z,29.50
2018-07-04T11:43:19.464Z,29.60
2018-07-04T11:45:54.278Z,29.70
2018-07-04T11:48:21.741Z,29.70
2018-07-04T11:50:49.045Z,29.80
2018-07-04T11:53:16.499Z,29.70
2018-07-04T11:55:43.789Z,29.70
2018-07-04T11:58:11.208Z,29.70
2018-07-04T12:00:38.575Z,29.80
2018-07-04T12:03:18.643Z,29.70
2018-07-04T12:05:58.373Z,29.70
2018-07-04T12:08:27.118Z,29.80
2018-07-04T12:10:56.170Z,29.70
2018-07-04T12:15:53.555Z,30.10
2018-07-04T12:18:21.584Z,30.30
2018-07-04T12:20:49.041Z,30.50
2018-07-04T12:23:16.442Z,30.80
2018-07-04T12:25:44.714Z,31.10
2018-07-04T12:28:12.057Z,31.30
2018-07-04T12:30:39.395Z,31.20
2018-07-04T12:33:06.699Z,31.00
2018-07-04T12:35:34.058Z,31.00
2018-07-04T12:38:01.403Z,31.10
2018-07-04T12:40:28.730Z,31.20
2018-07-04T12:42:56.057Z,31.30
2018-07-04T12:45:23.505Z,31.00
2018-07-04T12:47:50.855Z,31.00
2018-07-04T12:50:25.212Z,30.90
2018-07-04T12:52:52.563Z,30.70
2018-07-04T12:55:36.065Z,30.60
2018-07-04T12:58:16.633Z,30.60
2018-07-04T13:00:57.108Z,30.60
2018-07-04T13:03:36.988Z,30.70
2018-07-04T13:06:16.758Z,31.00
2018-07-04T13:08:56.529Z,31.10
2018-07-04T13:11:36.239Z,31.20
2018-07-04T13:14:16.703Z,31.40
2018-07-04T13:16:56.367Z,31.50
2018-07-04T13:19:36.405Z,31.60
2018-07-04T13:22:16.086Z,31.60
2018-07-04T13:24:55.759Z,31.80
2018-07-04T13:27:35.285Z,31.80
2018-07-04T13:30:14.847Z,31.80
2018-07-04T13:32:54.554Z,31.80
2018-07-04T13:35:34.042Z,31.70
2018-07-04T13:38:13.814Z,32.10
2018-07-04T13:40:53.512Z,32.10
2018-07-04T13:43:33.228Z,32.20
2018-07-04T13:46:12.933Z,32.10
2018-07-04T13:48:52.755Z,32.30
2018-07-04T13:51:32.370Z,32.40
2018-07-04T13:54:12.032Z,32.60
2018-07-04T13:56:51.661Z,32.60
2018-07-04T13:59:31.285Z,32.60
2018-07-04T14:02:11.156Z,32.40
2018-07-04T14:04:50.826Z,32.20
2018-07-04T14:07:30.570Z,32.20
2018-07-04T14:10:10.203Z,32.20
2018-07-04T14:12:49.826Z,32.40
2018-07-04T14:15:29.452Z,32.40
2018-07-04T14:18:09.281Z,32.40
2018-07-04T14:20:49.226Z,32.40
2018-07-04T14:23:28.933Z,32.20
2018-07-04T14:26:08.760Z,32.10
2018-07-04T14:28:48.539Z,32.10
2018-07-04T14:31:28.118Z,32.20
2018-07-04T14:34:07.710Z,32.20
2018-07-04T14:36:47.442Z,32.40
2018-07-04T14:39:27.425Z,32.50
2018-07-04T14:42:07.448Z,32.70
2018-07-04T14:44:47.615Z,33.10
2018-07-04T14:47:27.670Z,33.30
2018-07-04T14:50:07.761Z,32.90
2018-07-04T14:52:47.786Z,32.50
2018-07-04T14:55:27.858Z,32.40
2018-07-04T14:58:07.923Z,32.20
2018-07-04T15:00:47.945Z,32.50
2018-07-04T15:03:28.128Z,32.60
2018-07-04T15:06:08.217Z,32.80
2018-07-04T15:08:48.502Z,32.90
2018-07-04T15:11:28.425Z,32.80
2018-07-04T15:14:08.650Z,32.60
2018-07-04T15:16:48.642Z,32.50
2018-07-04T15:19:28.660Z,32.30
2018-07-04T15:22:08.803Z,32.20
2018-07-04T15:24:50.041Z,31.70
2018-07-04T15:27:29.990Z,31.40
2018-07-04T15:30:10.353Z,31.10
2018-07-04T15:32:50.736Z,31.10
2018-07-04T15:35:30.934Z,31.00
2018-07-04T15:38:11.148Z,30.80
2018-07-04T15:40:51.403Z,30.70
2018-07-04T15:43:31.088Z,30.50
2018-07-04T15:46:10.620Z,30.50
2018-07-04T15:48:50.280Z,30.40
2018-07-04T15:51:30.187Z,30.40
2018-07-04T15:54:09.878Z,30.30
2018-07-04T15:56:49.704Z,30.30
2018-07-04T15:59:29.512Z,30.50
2018-07-04T16:02:09.190Z,30.60
2018-07-04T16:07:22.578Z,30.60
2018-07-04T16:10:02.270Z,30.70
2018-07-04T16:12:41.903Z,31.00
2018-07-04T16:15:21.547Z,31.30
2018-07-04T16:18:01.107Z,31.70
2018-07-04T16:20:40.687Z,32.00
2018-07-04T16:23:20.247Z,32.30
2018-07-04T16:26:00.022Z,32.30
2018-07-04T16:28:39.920Z,32.40
2018-07-04T16:31:19.645Z,32.60
2018-07-04T16:33:59.303Z,32.90
2018-07-04T16:36:38.964Z,32.90
2018-07-04T16:39:18.677Z,32.80
2018-07-04T16:41:58.433Z,32.90
2018-07-04T16:44:38.278Z,33.00
2018-07-04T16:47:18.104Z,32.90
2018-07-04T16:49:57.579Z,33.00
2018-07-04T16:52:37.990Z,33.10
2018-07-04T16:55:17.774Z,33.10
2018-07-04T16:57:57.395Z,33.30
2018-07-04T17:00:37.025Z,33.20
2018-07-04T17:05:50.448Z,33.70
2018-07-04T17:08:30.152Z,34.20
2018-07-04T17:11:10.273Z,34.40
2018-07-04T17:13:49.968Z,35.00
2018-07-04T17:16:29.742Z,35.50
2018-07-04T17:19:09.642Z,35.90
2018-07-04T17:21:49.282Z,35.70
2018-07-04T17:24:29.077Z,34.80
2018-07-04T17:27:08.664Z,33.80
2018-07-04T17:29:48.351Z,32.50
2018-07-04T17:32:28.034Z,31.70
2018-07-04T17:35:07.898Z,31.20
2018-07-04T17:37:47.525Z,30.70
2018-07-04T17:40:27.260Z,30.20
2018-07-04T17:43:06.952Z,29.80
2018-07-04T17:45:46.649Z,29.40
2018-07-04T17:48:26.175Z,29.20
2018-07-04T17:51:05.823Z,28.90
2018-07-04T17:53:45.439Z,28.60
2018-07-04T17:56:25.106Z,28.40
2018-07-04T17:59:04.794Z,28.20
2018-07-04T18:01:45.199Z,27.90
2018-07-04T18:04:24.851Z,27.70
2018-07-04T18:07:04.497Z,27.60
2018-07-04T18:09:44.102Z,27.40
2018-07-04T18:12:23.962Z,27.30
2018-07-04T18:15:03.779Z,27.10
2018-07-04T18:17:43.453Z,27.00
2018-07-04T18:20:23.073Z,26.90
2018-07-04T18:23:02.666Z,26.80
2018-07-04T18:25:42.462Z,26.80
2018-07-04T18:28:22.264Z,26.80
2018-07-04T18:31:02.051Z,26.90
2018-07-04T18:33:42.531Z,27.60
2018-07-04T18:36:22.236Z,28.80
2018-07-04T18:39:01.979Z,29.70
2018-07-04T18:41:41.664Z,30.20
2018-07-04T18:44:21.538Z,30.50
2018-07-04T18:47:02.086Z,30.20
2018-07-04T18:49:41.724Z,29.70
2018-07-04T18:52:21.443Z,29.10
2018-07-04T18:55:01.184Z,28.70
2018-07-04T18:57:41.105Z,28.30
2018-07-04T19:00:20.749Z,28.00
2018-07-04T19:03:00.396Z,27.60
2018-07-04T19:05:40.034Z,27.30
2018-07-04T19:08:20.560Z,27.00
2018-07-04T19:11:00.447Z,26.70
2018-07-04T19:13:40.113Z,26.50
2018-07-04T19:16:19.823Z,26.30
2018-07-04T19:18:59.555Z,26.10
2018-07-04T19:21:39.223Z,26.00
2018-07-04T19:24:18.982Z,25.90
2018-07-04T19:26:58.694Z,25.70
2018-07-04T19:29:38.435Z,25.60
2018-07-04T19:32:18.087Z,25.50
2018-07-04T19:34:58.294Z,25.30
2018-07-04T19:37:38.089Z,25.20
2018-07-04T19:40:17.858Z,25.00
2018-07-04T19:42:57.727Z,24.90
2018-07-04T19:45:37.290Z,24.80
2018-07-04T19:48:16.977Z,24.60
2018-07-04T19:50:56.627Z,24.50
2018-07-04T19:53:36.427Z,24.30
2018-07-04T19:56:15.966Z,24.20
2018-07-04T19:58:55.657Z,24.00
2018-07-04T20:01:35.554Z,23.90
2018-07-04T20:04:15.256Z,23.80
2018-07-04T20:06:55.049Z,23.70
2018-07-04T20:09:34.654Z,23.60
2018-07-04T20:12:14.190Z,23.50
2018-07-04T20:14:53.819Z,23.40
2018-07-04T20:17:33.473Z,23.20
2018-07-04T20:20:13.097Z,23.10
2018-07-04T20:22:52.868Z,23.00
2018-07-04T20:25:32.651Z,22.90
2018-07-04T20:28:12.260Z,22.90
2018-07-04T20:30:51.825Z,22.80
2018-07-04T20:33:31.590Z,22.60
2018-07-04T20:36:11.266Z,22.50
2018-07-04T20:38:50.878Z,22.50
2018-07-04T20:41:30.540Z,22.40
2018-07-04T20:46:44.594Z,22.40
2018-07-04T20:49:24.428Z,22.30
2018-07-04T20:52:04.229Z,22.30
2018-07-04T20:54:43.784Z,22.20
2018-07-04T20:57:23.484Z,22.20
2018-07-04T21:00:02.981Z,22.10
2018-07-04T21:02:43.384Z,22.00
2018-07-04T21:05:23.097Z,22.00
2018-07-04T21:08:02.756Z,21.90
2018-07-04T21:10:42.421Z,21.80
2018-07-04T21:13:22.470Z,21.70
2018-07-04T21:16:02.116Z,21.60
2018-07-04T21:18:41.904Z,21.50
2018-07-04T21:21:21.595Z,21.40
2018-07-04T21:24:01.239Z,21.30
2018-07-04T21:26:40.873Z,21.20
2018-07-04T21:29:20.478Z,21.20
2018-07-04T21:32:00.686Z,21.10
2018-07-04T21:34:41.245Z,21.10
2018-07-04T21:37:21.005Z,21.00
2018-07-04T21:40:00.793Z,21.00
2018-07-04T21:42:40.431Z,21.00
2018-07-04T21:45:20.205Z,21.00
2018-07-04T21:47:59.952Z,21.00
2018-07-04T21:50:39.554Z,20.90
2018-07-04T21:53:19.875Z,20.90
2018-07-04T21:55:59.668Z,20.80
2018-07-04T21:58:39.363Z,20.80
2018-07-04T22:01:19.135Z,20.80
2018-07-04T22:03:58.845Z,20.70
2018-07-04T22:06:38.401Z,20.60
2018-07-04T22:09:18.207Z,20.50
2018-07-04T22:11:58.010Z,20.50
2018-07-04T22:14:37.732Z,20.50
2018-07-04T22:17:17.346Z,20.50
2018-07-04T22:19:57.058Z,20.60
2018-07-04T22:22:36.615Z,20.50
2018-07-04T22:25:16.208Z,20.40
2018-07-04T22:27:55.836Z,20.30
2018-07-04T22:30:35.497Z,20.30
2018-07-04T22:33:15.174Z,20.30
2018-07-04T22:35:55.701Z,20.20
2018-07-04T22:38:35.642Z,20.20
2018-07-04T22:41:15.374Z,20.10
2018-07-04T22:43:55.009Z,20.20
2018-07-04T22:46:34.640Z,20.20
2018-07-04T22:49:14.401Z,20.10
2018-07-04T22:51:53.946Z,20.00
2018-07-04T22:54:33.518Z,20.00
2018-07-04T22:57:13.981Z,20.00
2018-07-04T22:59:53.799Z,19.90
2018-07-04T23:02:33.399Z,19.80
2018-07-04T23:05:12.946Z,19.70
2018-07-04T23:07:52.423Z,19.70
2018-07-04T23:10:32.099Z,19.60
2018-07-04T23:13:12.045Z,19.60
2018-07-04T23:15:51.699Z,19.50
2018-07-04T23:18:31.314Z,19.40
2018-07-04T23:21:11.070Z,19.40
2018-07-04T23:23:50.783Z,19.30
2018-07-04T23:26:30.958Z,19.30
2018-07-04T23:29:10.682Z,19.20
2018-07-04T23:31:50.221Z,19.20
2018-07-04T23:34:29.859Z,19.10
2018-07-04T23:37:10.326Z,19.10
2018-07-04T23:39:50.043Z,19.10
2018-07-04T23:42:29.678Z,19.00
2018-07-04T23:45:10.014Z,18.90
2018-07-04T23:47:49.852Z,19.00
2018-07-04T23:50:29.532Z,18.90
2018-07-04T23:53:09.307Z,18.80
2018-07-04T23:55:49.056Z,18.80
2018-07-04T23:58:28.718Z,18.70
